createdAt,value
2017-10-11T00:00:12.402Z,0
2017-10-11T00:01:13.790Z,0
2017-10-11T00:02:15.179Z,0
2017-10-11T00:03:16.566Z,0
2017-10-11T00:04:17.958Z,0
2017-10-11T00:05:19.346Z,0
2017-10-11T00:06:20.738Z,0
2017-10-11T00:07:22.132Z,0
2017-10-11T00:08:23.522Z,0
2017-10-11T00:09:24.908Z,0
2017-10-11T00:10:26.298Z,0
2017-10-11T00:11:27.685Z,0
2017-10-11T00:12:29.073Z,0
2017-10-11T00:13:30.466Z,0
2017-10-11T00:14:31.854Z,0
2017-10-11T00:15:33.267Z,0
2017-10-11T00:16:34.631Z,0
2017-10-11T00:17:36.019Z,0
2017-10-11T00:18:37.412Z,0
2017-10-11T00:19:38.807Z,0
2017-10-11T00:20:40.196Z,0
2017-10-11T00:21:41.585Z,0
2017-10-11T00:22:42.974Z,0
2017-10-11T00:23:44.362Z,0
2017-10-11T00:24:45.751Z,0
2017-10-11T00:25:47.140Z,0
2017-10-11T00:26:48.527Z,0
2017-10-11T00:27:49.918Z,0
2017-10-11T00:28:51.310Z,0
2017-10-11T00:29:52.695Z,0
2017-10-11T00:30:54.085Z,0
2017-10-11T00:31:55.473Z,0
2017-10-11T00:32:56.862Z,0
2017-10-11T00:33:58.252Z,0
2017-10-11T00:34:59.645Z,0
2017-10-11T00:36:01.033Z,0
2017-10-11T00:37:02.420Z,0
2017-10-11T00:38:03.808Z,0
2017-10-11T00:39:05.196Z,0
2017-10-11T00:40:06.586Z,0
2017-10-11T00:41:07.975Z,0
2017-10-11T00:42:09.365Z,0
2017-10-11T00:43:10.754Z,0
2017-10-11T00:44:12.143Z,0
2017-10-11T00:45:13.532Z,0
2017-10-11T00:46:14.922Z,0
2017-10-11T00:47:16.311Z,0
2017-10-11T00:48:17.700Z,0
2017-10-11T00:49:19.090Z,0
2017-10-11T00:50:20.479Z,0
2017-10-11T00:51:21.868Z,0
2017-10-11T00:52:23.258Z,0
2017-10-11T00:53:24.646Z,0
2017-10-11T00:54:26.037Z,0
2017-10-11T00:55:27.430Z,0
2017-10-11T00:56:28.820Z,0
2017-10-11T00:57:30.211Z,0
2017-10-11T00:58:31.598Z,0
2017-10-11T00:59:32.985Z,0
2017-10-11T01:00:34.370Z,0
2017-10-11T01:01:35.761Z,0
2017-10-11T01:02:37.149Z,0
2017-10-11T01:03:38.546Z,0
2017-10-11T01:04:39.928Z,0
2017-10-11T01:05:41.316Z,0
2017-10-11T01:06:42.708Z,0
2017-10-11T01:07:44.096Z,0
2017-10-11T01:08:45.485Z,0
2017-10-11T01:09:46.874Z,0
2017-10-11T01:10:48.263Z,0
2017-10-11T01:11:49.651Z,0
2017-10-11T01:12:51.038Z,0
2017-10-11T01:13:52.426Z,0
2017-10-11T01:14:53.820Z,0
2017-10-11T01:15:55.207Z,0
2017-10-11T01:16:56.595Z,0
2017-10-11T01:17:57.982Z,0
2017-10-11T01:18:59.376Z,0
2017-10-11T01:20:00.763Z,0
2017-10-11T01:21:02.151Z,0
2017-10-11T01:22:03.541Z,0
2017-10-11T01:23:04.928Z,0
2017-10-11T01:24:06.317Z,0
2017-10-11T01:25:07.721Z,0
2017-10-11T01:26:09.102Z,0
2017-10-11T01:27:10.492Z,0
2017-10-11T01:28:11.881Z,0
2017-10-11T01:29:13.270Z,0
2017-10-11T01:30:14.661Z,0
2017-10-11T01:31:16.052Z,0
2017-10-11T01:32:17.440Z,0
2017-10-11T01:33:18.830Z,0
2017-10-11T01:34:20.214Z,0
2017-10-11T01:35:21.605Z,0
2017-10-11T01:36:22.996Z,0
2017-10-11T01:37:24.386Z,0
2017-10-11T01:38:25.773Z,0
2017-10-11T01:39:27.165Z,0
2017-10-11T01:40:28.554Z,0
2017-10-11T01:41:29.941Z,0
2017-10-11T01:42:31.328Z,0
2017-10-11T01:43:32.717Z,0
2017-10-11T01:44:34.108Z,0
2017-10-11T01:45:35.495Z,0
2017-10-11T01:46:36.886Z,0
2017-10-11T01:47:38.275Z,0
2017-10-11T01:48:39.664Z,0
2017-10-11T01:49:41.051Z,0
2017-10-11T01:50:42.438Z,0
2017-10-11T01:51:43.831Z,0
2017-10-11T01:52:45.219Z,0
2017-10-11T01:53:46.607Z,0
2017-10-11T01:54:47.999Z,0
2017-10-11T01:55:49.384Z,0
2017-10-11T01:56:50.772Z,0
2017-10-11T01:57:52.167Z,0
2017-10-11T01:58:53.551Z,0
2017-10-11T01:59:54.941Z,0
2017-10-11T02:00:56.332Z,0
2017-10-11T02:01:57.725Z,0
2017-10-11T02:02:59.112Z,0
2017-10-11T02:04:00.500Z,0
2017-10-11T02:05:01.886Z,0
2017-10-11T02:06:03.931Z,0
2017-10-11T02:07:05.318Z,0
2017-10-11T02:08:06.710Z,0
2017-10-11T02:09:08.096Z,0
2017-10-11T02:10:09.485Z,0
2017-10-11T02:11:10.871Z,0
2017-10-11T02:12:12.260Z,0
2017-10-11T02:13:13.649Z,0
2017-10-11T02:14:15.073Z,0
2017-10-11T02:15:16.461Z,0
2017-10-11T02:16:17.848Z,0
2017-10-11T02:17:19.239Z,0
2017-10-11T02:18:20.627Z,0
2017-10-11T02:19:22.014Z,0
2017-10-11T02:20:23.402Z,0
2017-10-11T02:21:24.793Z,0
2017-10-11T02:22:26.188Z,0
2017-10-11T02:23:27.575Z,0
2017-10-11T02:24:28.958Z,0
2017-10-11T02:25:30.348Z,0
2017-10-11T02:26:31.734Z,0
2017-10-11T02:27:33.126Z,0
2017-10-11T02:28:34.515Z,0
2017-10-11T02:29:35.903Z,0
2017-10-11T02:30:37.292Z,0
2017-10-11T02:31:38.678Z,0
2017-10-11T02:32:40.065Z,0
2017-10-11T02:33:41.452Z,0
2017-10-11T02:34:42.842Z,0
2017-10-11T02:35:44.231Z,0
2017-10-11T02:36:45.619Z,0
2017-10-11T02:37:47.012Z,0
2017-10-11T02:38:48.399Z,0
2017-10-11T02:39:49.787Z,0
2017-10-11T02:40:51.174Z,0
2017-10-11T02:41:52.563Z,0
2017-10-11T02:42:53.950Z,0
2017-10-11T02:43:55.343Z,0
2017-10-11T02:44:56.740Z,0
2017-10-11T02:45:58.123Z,0
2017-10-11T02:46:59.509Z,0
2017-10-11T02:48:00.898Z,0
2017-10-11T02:49:02.285Z,0
2017-10-11T02:50:03.674Z,0
2017-10-11T02:51:05.063Z,0
2017-10-11T02:52:06.452Z,0
2017-10-11T02:53:07.839Z,0
2017-10-11T02:54:09.228Z,0
2017-10-11T02:55:10.620Z,0
2017-10-11T02:56:12.008Z,0
2017-10-11T02:57:13.398Z,0
2017-10-11T02:58:14.788Z,0
2017-10-11T02:59:16.179Z,0
2017-10-11T03:00:17.567Z,0
2017-10-11T03:01:18.956Z,0
2017-10-11T03:02:20.341Z,0
2017-10-11T03:03:21.733Z,0
2017-10-11T03:04:23.123Z,0
2017-10-11T03:05:24.511Z,0
2017-10-11T03:06:25.901Z,0
2017-10-11T03:07:27.288Z,0
2017-10-11T03:08:28.678Z,0
2017-10-11T03:09:30.063Z,0
2017-10-11T03:10:31.451Z,0
2017-10-11T03:11:32.838Z,0
2017-10-11T03:12:34.229Z,0
2017-10-11T03:13:35.622Z,0
2017-10-11T03:14:37.008Z,0
2017-10-11T03:15:38.398Z,0
2017-10-11T03:16:39.785Z,0
2017-10-11T03:17:41.173Z,0
2017-10-11T03:18:42.560Z,0
2017-10-11T03:19:43.951Z,0
2017-10-11T03:20:45.343Z,0
2017-10-11T03:21:46.732Z,0
2017-10-11T03:22:48.120Z,0
2017-10-11T03:23:49.509Z,0
2017-10-11T03:24:50.894Z,0
2017-10-11T03:25:52.284Z,0
2017-10-11T03:26:53.673Z,0
2017-10-11T03:27:55.061Z,0
2017-10-11T03:28:56.449Z,0
2017-10-11T03:29:57.835Z,0
2017-10-11T03:30:59.226Z,0
2017-10-11T03:32:00.611Z,0
2017-10-11T03:33:02.002Z,0
2017-10-11T03:34:03.392Z,0
2017-10-11T03:35:04.783Z,0
2017-10-11T03:36:06.168Z,0
2017-10-11T03:37:07.559Z,0
2017-10-11T03:38:08.947Z,0
2017-10-11T03:39:10.336Z,0
2017-10-11T03:40:11.727Z,0
2017-10-11T03:41:13.118Z,0
2017-10-11T03:42:14.511Z,0
2017-10-11T03:43:15.899Z,0
2017-10-11T03:44:17.286Z,0
2017-10-11T03:45:18.674Z,0
2017-10-11T03:46:20.064Z,0
2017-10-11T03:47:21.469Z,0
2017-10-11T03:48:22.846Z,0
2017-10-11T03:49:24.233Z,0
2017-10-11T03:50:25.620Z,0
2017-10-11T03:51:27.008Z,0
2017-10-11T03:52:28.396Z,0
2017-10-11T03:53:29.784Z,0
2017-10-11T03:54:31.171Z,0
2017-10-11T03:55:32.605Z,0
2017-10-11T03:56:33.976Z,0
2017-10-11T03:57:35.366Z,0
2017-10-11T03:58:36.755Z,0
2017-10-11T03:59:38.140Z,0
2017-10-11T04:00:39.528Z,0
2017-10-11T04:01:40.916Z,0
2017-10-11T04:02:42.306Z,0
2017-10-11T04:03:43.697Z,0
2017-10-11T04:04:45.087Z,0
2017-10-11T04:05:46.479Z,0
2017-10-11T04:06:47.868Z,0
2017-10-11T04:07:49.258Z,0
2017-10-11T04:08:50.647Z,0
2017-10-11T04:09:52.035Z,0
2017-10-11T04:10:53.424Z,0
2017-10-11T04:11:54.813Z,0
2017-10-11T04:12:56.206Z,0
2017-10-11T04:13:57.594Z,0
2017-10-11T04:14:58.984Z,0
2017-10-11T04:16:00.373Z,0
2017-10-11T04:17:01.768Z,0
2017-10-11T04:18:03.155Z,0
2017-10-11T04:19:04.542Z,0
2017-10-11T04:20:05.936Z,0
2017-10-11T04:21:07.323Z,0
2017-10-11T04:22:08.712Z,0
2017-10-11T04:23:10.102Z,0
2017-10-11T04:24:11.488Z,0
2017-10-11T04:25:12.880Z,0
2017-10-11T04:26:14.269Z,0
2017-10-11T04:27:15.659Z,0
2017-10-11T04:28:17.050Z,0
2017-10-11T04:29:18.438Z,0
2017-10-11T04:30:19.829Z,0
2017-10-11T04:31:21.218Z,0
2017-10-11T04:32:22.606Z,0
2017-10-11T04:33:23.992Z,0
2017-10-11T04:34:28.378Z,0
2017-10-11T04:35:29.766Z,0
2017-10-11T04:36:31.155Z,0
2017-10-11T04:37:32.712Z,0
2017-10-11T04:38:34.104Z,0
2017-10-11T04:39:35.497Z,0
2017-10-11T04:40:36.900Z,0
2017-10-11T04:41:38.290Z,0
2017-10-11T04:42:39.678Z,0
2017-10-11T04:43:41.067Z,0
2017-10-11T04:44:42.457Z,0
2017-10-11T04:45:43.851Z,0
2017-10-11T04:46:45.239Z,0
2017-10-11T04:47:46.623Z,0
2017-10-11T04:48:48.015Z,0
2017-10-11T04:49:49.405Z,0
2017-10-11T04:50:50.795Z,0
2017-10-11T04:51:52.184Z,0
2017-10-11T04:52:53.570Z,0
2017-10-11T04:53:54.990Z,0
2017-10-11T04:54:56.379Z,0
2017-10-11T04:55:57.765Z,0
2017-10-11T04:56:59.156Z,0
2017-10-11T04:58:00.547Z,0
2017-10-11T04:59:01.933Z,0
2017-10-11T05:00:03.332Z,0
2017-10-11T05:01:04.717Z,0
2017-10-11T05:02:06.106Z,0
2017-10-11T05:03:07.495Z,0
2017-10-11T05:04:08.882Z,0
2017-10-11T05:05:10.274Z,0
2017-10-11T05:06:11.661Z,0
2017-10-11T05:07:13.057Z,0
2017-10-11T05:08:14.443Z,0
2017-10-11T05:09:15.831Z,0
2017-10-11T05:10:17.259Z,0
2017-10-11T05:11:18.653Z,0
2017-10-11T05:12:20.046Z,0
2017-10-11T05:13:21.436Z,0
2017-10-11T05:14:22.823Z,0
2017-10-11T05:15:24.213Z,0
2017-10-11T05:16:25.602Z,0
2017-10-11T05:17:26.996Z,0
2017-10-11T05:18:28.409Z,0
2017-10-11T05:19:29.801Z,0
2017-10-11T05:20:31.196Z,0
2017-10-11T05:21:32.583Z,0
2017-10-11T05:22:34.298Z,0
2017-10-11T05:23:35.681Z,0
2017-10-11T05:24:37.070Z,0
2017-10-11T05:25:38.460Z,4
2017-10-11T05:26:41.103Z,4
2017-10-11T05:27:42.265Z,4
2017-10-11T05:28:43.649Z,0
2017-10-11T05:29:45.044Z,0
2017-10-11T05:30:46.428Z,4
2017-10-11T05:31:47.816Z,4
2017-10-11T05:32:49.244Z,4
2017-10-11T05:33:50.634Z,8
2017-10-11T05:34:52.024Z,8
2017-10-11T05:35:53.415Z,8
2017-10-11T05:36:54.803Z,8
2017-10-11T05:37:56.189Z,8
2017-10-11T05:38:57.580Z,12
2017-10-11T05:39:58.969Z,12
2017-10-11T05:41:00.360Z,16
2017-10-11T05:42:01.756Z,16
2017-10-11T05:43:03.149Z,20
2017-10-11T05:44:04.540Z,20
2017-10-11T05:45:05.929Z,24
2017-10-11T05:46:07.318Z,28
2017-10-11T05:47:08.709Z,28
2017-10-11T05:48:10.107Z,36
2017-10-11T05:49:11.496Z,40
2017-10-11T05:50:12.888Z,44
2017-10-11T05:51:14.281Z,48
2017-10-11T05:52:15.668Z,52
2017-10-11T05:53:17.056Z,56
2017-10-11T05:54:18.455Z,60
2017-10-11T05:55:19.842Z,68
2017-10-11T05:56:21.229Z,72
2017-10-11T05:57:22.622Z,80
2017-10-11T05:58:24.016Z,80
2017-10-11T05:59:25.407Z,92
2017-10-11T06:00:26.794Z,96
2017-10-11T06:01:28.183Z,108
2017-10-11T06:02:29.572Z,116
2017-10-11T06:03:30.968Z,120
2017-10-11T06:04:32.323Z,128
2017-10-11T06:05:33.716Z,136
2017-10-11T06:06:35.105Z,140
2017-10-11T06:07:36.509Z,144
2017-10-11T06:08:37.892Z,152
2017-10-11T06:09:39.283Z,160
2017-10-11T06:10:40.673Z,168
2017-10-11T06:11:42.065Z,188
2017-10-11T06:12:43.460Z,200
2017-10-11T06:13:44.847Z,200
2017-10-11T06:14:46.245Z,204
2017-10-11T06:15:47.629Z,208
2017-10-11T06:16:49.018Z,224
2017-10-11T06:17:50.415Z,248
2017-10-11T06:18:51.815Z,276
2017-10-11T06:19:53.210Z,296
2017-10-11T06:20:54.599Z,308
2017-10-11T06:21:55.990Z,320
2017-10-11T06:22:57.381Z,332
2017-10-11T06:23:58.773Z,352
2017-10-11T06:25:00.173Z,372
2017-10-11T06:26:01.560Z,392
2017-10-11T06:27:02.949Z,432
2017-10-11T06:28:04.350Z,480
2017-10-11T06:29:05.738Z,508
2017-10-11T06:30:07.127Z,528
2017-10-11T06:31:08.524Z,516
2017-10-11T06:32:09.917Z,516
2017-10-11T06:33:11.311Z,504
2017-10-11T06:34:12.707Z,512
2017-10-11T06:35:14.095Z,528
2017-10-11T06:36:15.489Z,540
2017-10-11T06:37:16.882Z,596
2017-10-11T06:38:18.277Z,596
2017-10-11T06:39:19.668Z,624
2017-10-11T06:40:21.062Z,664
2017-10-11T06:41:22.457Z,684
2017-10-11T06:42:23.847Z,640
2017-10-11T06:43:25.237Z,640
2017-10-11T06:44:26.628Z,644
2017-10-11T06:45:28.023Z,620
2017-10-11T06:46:29.412Z,604
2017-10-11T06:47:30.810Z,624
2017-10-11T06:48:32.202Z,628
2017-10-11T06:49:33.592Z,640
2017-10-11T06:50:34.983Z,684
2017-10-11T06:51:36.372Z,720
2017-10-11T06:52:37.764Z,720
2017-10-11T06:53:39.159Z,656
2017-10-11T06:54:40.551Z,652
2017-10-11T06:55:41.946Z,668
2017-10-11T06:56:43.335Z,696
2017-10-11T06:57:44.723Z,696
2017-10-11T06:58:46.114Z,684
2017-10-11T06:59:47.508Z,688
2017-10-11T07:00:48.899Z,692
2017-10-11T07:01:50.294Z,656
2017-10-11T07:02:51.682Z,624
2017-10-11T07:03:53.076Z,656
2017-10-11T07:04:54.466Z,736
2017-10-11T07:05:55.858Z,796
2017-10-11T07:06:57.249Z,776
2017-10-11T07:07:58.646Z,796
2017-10-11T07:09:00.037Z,836
2017-10-11T07:10:01.430Z,880
2017-10-11T07:11:02.821Z,892
2017-10-11T07:12:04.212Z,868
2017-10-11T07:13:05.603Z,864
2017-10-11T07:14:07.008Z,820
2017-10-11T07:15:08.393Z,784
2017-10-11T07:16:09.786Z,776
2017-10-11T07:17:11.181Z,744
2017-10-11T07:18:12.570Z,700
2017-10-11T07:19:13.964Z,728
2017-10-11T07:20:15.354Z,696
2017-10-11T07:21:16.748Z,652
2017-10-11T07:22:18.140Z,644
2017-10-11T07:23:19.539Z,668
2017-10-11T07:24:20.928Z,636
2017-10-11T07:25:22.337Z,624
2017-10-11T07:26:23.712Z,620
2017-10-11T07:27:25.101Z,584
2017-10-11T07:28:26.494Z,572
2017-10-11T07:29:27.885Z,584
2017-10-11T07:30:29.278Z,632
2017-10-11T07:31:30.672Z,644
2017-10-11T07:32:32.067Z,620
2017-10-11T07:33:33.457Z,608
2017-10-11T07:34:34.851Z,616
2017-10-11T07:35:36.242Z,632
2017-10-11T07:36:37.637Z,636
2017-10-11T07:37:39.030Z,660
2017-10-11T07:38:40.421Z,684
2017-10-11T07:39:41.814Z,720
2017-10-11T07:40:43.212Z,708
2017-10-11T07:41:44.606Z,704
2017-10-11T07:42:45.993Z,696
2017-10-11T07:43:47.388Z,708
2017-10-11T07:44:48.780Z,716
2017-10-11T07:45:50.178Z,756
2017-10-11T07:46:51.568Z,900
2017-10-11T07:47:52.960Z,956
2017-10-11T07:48:54.353Z,944
2017-10-11T07:49:55.746Z,1048
2017-10-11T07:50:57.142Z,1100
2017-10-11T07:51:58.537Z,1176
2017-10-11T07:52:59.930Z,1248
2017-10-11T07:54:01.320Z,1276
2017-10-11T07:55:02.716Z,1256
2017-10-11T07:56:04.109Z,1320
2017-10-11T07:57:05.504Z,1268
2017-10-11T07:58:06.897Z,1300
2017-10-11T07:59:08.292Z,1364
2017-10-11T08:00:09.687Z,1420
2017-10-11T08:01:11.079Z,1348
2017-10-11T08:02:12.470Z,1280
2017-10-11T08:03:13.864Z,1268
2017-10-11T08:04:15.258Z,1248
2017-10-11T08:05:16.652Z,1140
2017-10-11T08:06:18.060Z,1144
2017-10-11T08:07:19.443Z,1196
2017-10-11T08:08:20.835Z,1152
2017-10-11T08:09:22.231Z,1160
2017-10-11T08:10:23.623Z,1356
2017-10-11T08:11:25.018Z,1456
2017-10-11T08:12:26.413Z,1492
2017-10-11T08:13:27.809Z,1652
2017-10-11T08:14:29.203Z,1536
2017-10-11T08:15:30.593Z,1456
2017-10-11T08:16:31.988Z,1524
2017-10-11T08:17:33.383Z,1444
2017-10-11T08:18:34.778Z,1372
2017-10-11T08:19:36.171Z,1396
2017-10-11T08:20:37.566Z,1460
2017-10-11T08:21:38.959Z,1372
2017-10-11T08:22:40.351Z,1344
2017-10-11T08:23:41.750Z,1428
2017-10-11T08:24:43.135Z,1564
2017-10-11T08:25:44.530Z,1472
2017-10-11T08:26:45.926Z,1444
2017-10-11T08:27:47.319Z,1420
2017-10-11T08:28:48.712Z,1404
2017-10-11T08:29:50.105Z,1436
2017-10-11T08:30:51.504Z,1396
2017-10-11T08:31:52.891Z,1404
2017-10-11T08:32:54.290Z,1444
2017-10-11T08:33:55.689Z,1420
2017-10-11T08:34:57.077Z,1440
2017-10-11T08:35:58.478Z,1272
2017-10-11T08:36:59.866Z,1168
2017-10-11T08:38:01.262Z,1140
2017-10-11T08:39:02.654Z,1064
2017-10-11T08:40:04.049Z,988
2017-10-11T08:41:05.441Z,1024
2017-10-11T08:42:06.838Z,1068
2017-10-11T08:43:08.232Z,1120
2017-10-11T08:44:09.626Z,1168
2017-10-11T08:45:11.019Z,1228
2017-10-11T08:46:12.409Z,1300
2017-10-11T08:47:13.803Z,1324
2017-10-11T08:48:15.196Z,1332
2017-10-11T08:49:16.600Z,1344
2017-10-11T08:50:17.986Z,1384
2017-10-11T08:51:19.375Z,1272
2017-10-11T08:52:20.767Z,1256
2017-10-11T08:53:22.167Z,1224
2017-10-11T08:54:23.560Z,1224
2017-10-11T08:55:24.954Z,1228
2017-10-11T08:56:26.346Z,1312
2017-10-11T08:57:27.775Z,1328
2017-10-11T08:58:29.168Z,1272
2017-10-11T08:59:30.565Z,1364
2017-10-11T09:00:31.955Z,1304
2017-10-11T09:01:33.352Z,1384
2017-10-11T09:02:34.744Z,1384
2017-10-11T09:03:36.143Z,1444
2017-10-11T09:04:37.536Z,1588
2017-10-11T09:05:38.929Z,1628
2017-10-11T09:06:40.322Z,1632
2017-10-11T09:07:41.725Z,1560
2017-10-11T09:08:43.112Z,1488
2017-10-11T09:09:44.507Z,1496
2017-10-11T09:10:45.904Z,1492
2017-10-11T09:11:47.297Z,1416
2017-10-11T09:12:48.688Z,1400
2017-10-11T09:13:50.083Z,1492
2017-10-11T09:14:51.476Z,1400
2017-10-11T09:15:52.871Z,1340
2017-10-11T09:16:54.271Z,1368
2017-10-11T09:17:55.662Z,1240
2017-10-11T09:18:57.057Z,1180
2017-10-11T09:19:58.450Z,1300
2017-10-11T09:20:59.843Z,1280
2017-10-11T09:22:01.237Z,1356
2017-10-11T09:23:02.632Z,1452
2017-10-11T09:24:04.028Z,1492
2017-10-11T09:25:05.420Z,1344
2017-10-11T09:26:06.817Z,1268
2017-10-11T09:27:08.212Z,1292
2017-10-11T09:28:09.606Z,1364
2017-10-11T09:29:11.000Z,1312
2017-10-11T09:30:12.396Z,1280
2017-10-11T09:31:13.790Z,1196
2017-10-11T09:32:15.182Z,1212
2017-10-11T09:33:16.581Z,1336
2017-10-11T09:34:17.975Z,1448
2017-10-11T09:35:19.367Z,1344
2017-10-11T09:36:20.762Z,1268
2017-10-11T09:37:22.153Z,1260
2017-10-11T09:38:23.547Z,1252
2017-10-11T09:39:24.942Z,1268
2017-10-11T09:40:26.338Z,1212
2017-10-11T09:41:27.731Z,1208
2017-10-11T09:42:29.124Z,1156
2017-10-11T09:43:30.536Z,1160
2017-10-11T09:44:31.916Z,1068
2017-10-11T09:45:33.309Z,1060
2017-10-11T09:46:34.709Z,1032
2017-10-11T09:47:36.101Z,1144
2017-10-11T09:48:37.499Z,1200
2017-10-11T09:49:38.892Z,1148
2017-10-11T09:50:40.286Z,1276
2017-10-11T09:51:41.681Z,1336
2017-10-11T09:52:43.075Z,1364
2017-10-11T09:53:44.470Z,1504
2017-10-11T09:54:45.864Z,1484
2017-10-11T09:55:47.255Z,1552
2017-10-11T09:56:48.647Z,1492
2017-10-11T09:57:50.038Z,1460
2017-10-11T09:58:51.434Z,1488
2017-10-11T09:59:52.827Z,1448
2017-10-11T10:00:54.227Z,1472
2017-10-11T10:01:55.623Z,1352
2017-10-11T10:02:57.021Z,1280
2017-10-11T10:03:58.410Z,1204
2017-10-11T10:04:59.803Z,1208
2017-10-11T10:06:01.197Z,1144
2017-10-11T10:07:02.591Z,1148
2017-10-11T10:08:03.985Z,1128
2017-10-11T10:09:05.383Z,1060
2017-10-11T10:10:06.774Z,1016
2017-10-11T10:11:08.164Z,992
2017-10-11T10:12:09.557Z,964
2017-10-11T10:13:10.949Z,968
2017-10-11T10:14:12.343Z,1008
2017-10-11T10:15:13.739Z,1012
2017-10-11T10:16:15.129Z,984
2017-10-11T10:17:16.522Z,988
2017-10-11T10:18:17.913Z,976
2017-10-11T10:19:19.302Z,980
2017-10-11T10:20:20.696Z,952
2017-10-11T10:21:22.090Z,1144
2017-10-11T10:22:23.489Z,1324
2017-10-11T10:23:24.883Z,1252
2017-10-11T10:24:26.274Z,1256
2017-10-11T10:25:27.668Z,1308
2017-10-11T10:26:29.062Z,1184
2017-10-11T10:27:30.459Z,1240
2017-10-11T10:28:31.852Z,1264
2017-10-11T10:29:33.248Z,1208
2017-10-11T10:30:34.643Z,1304
2017-10-11T10:31:36.032Z,1232
2017-10-11T10:32:37.426Z,1200
2017-10-11T10:33:38.819Z,1196
2017-10-11T10:34:40.215Z,1308
2017-10-11T10:35:41.608Z,1432
2017-10-11T10:36:43.050Z,1352
2017-10-11T10:37:44.447Z,1348
2017-10-11T10:38:45.839Z,1236
2017-10-11T10:39:47.231Z,1276
2017-10-11T10:40:48.624Z,1400
2017-10-11T10:41:50.025Z,1484
2017-10-11T10:42:51.415Z,1400
2017-10-11T10:43:52.810Z,1356
2017-10-11T10:44:54.208Z,1348
2017-10-11T10:45:55.598Z,1520
2017-10-11T10:46:56.994Z,1424
2017-10-11T10:47:58.388Z,1288
2017-10-11T10:48:59.786Z,1316
2017-10-11T10:50:01.179Z,1284
2017-10-11T10:51:02.574Z,1536
2017-10-11T10:52:03.978Z,1588
2017-10-11T10:53:05.365Z,1820
2017-10-11T10:54:06.764Z,1936
2017-10-11T10:55:08.151Z,1856
2017-10-11T10:56:09.543Z,1668
2017-10-11T10:57:10.936Z,1572
2017-10-11T10:58:12.333Z,1552
2017-10-11T10:59:13.725Z,1536
2017-10-11T11:00:15.124Z,1540
2017-10-11T11:01:16.516Z,1476
2017-10-11T11:02:17.911Z,1568
2017-10-11T11:03:19.305Z,1712
2017-10-11T11:04:20.698Z,1764
2017-10-11T11:05:22.094Z,1716
2017-10-11T11:06:23.491Z,1684
2017-10-11T11:07:24.882Z,1780
2017-10-11T11:08:26.274Z,1868
2017-10-11T11:09:27.669Z,1876
2017-10-11T11:10:29.063Z,1756
2017-10-11T11:11:30.458Z,1864
2017-10-11T11:12:31.855Z,1724
2017-10-11T11:13:33.249Z,1504
2017-10-11T11:14:34.641Z,1500
2017-10-11T11:15:36.032Z,1596
2017-10-11T11:16:37.423Z,1400
2017-10-11T11:17:38.820Z,1372
2017-10-11T11:18:40.214Z,1364
2017-10-11T11:19:41.609Z,1140
2017-10-11T11:20:43.003Z,1112
2017-10-11T11:21:44.392Z,1160
2017-10-11T11:22:45.795Z,1100
2017-10-11T11:23:47.187Z,1080
2017-10-11T11:24:48.582Z,1100
2017-10-11T11:25:49.977Z,1244
2017-10-11T11:26:51.373Z,1504
2017-10-11T11:27:52.768Z,1480
2017-10-11T11:28:54.159Z,1412
2017-10-11T11:29:55.556Z,1524
2017-10-11T11:30:56.949Z,1336
2017-10-11T11:31:58.342Z,1464
2017-10-11T11:32:59.740Z,1520
2017-10-11T11:34:01.137Z,1444
2017-10-11T11:35:02.533Z,1416
2017-10-11T11:36:03.923Z,1344
2017-10-11T11:37:05.315Z,1260
2017-10-11T11:38:06.709Z,1188
2017-10-11T11:39:08.107Z,1272
2017-10-11T11:40:09.498Z,1376
2017-10-11T11:41:10.897Z,1232
2017-10-11T11:42:12.293Z,1172
2017-10-11T11:43:13.686Z,1192
2017-10-11T11:44:15.080Z,1324
2017-10-11T11:45:16.474Z,1268
2017-10-11T11:46:17.868Z,1208
2017-10-11T11:47:19.262Z,1156
2017-10-11T11:48:20.657Z,1036
2017-10-11T11:49:22.053Z,1080
2017-10-11T11:50:23.448Z,1108
2017-10-11T11:51:24.845Z,1008
2017-10-11T11:52:26.235Z,932
2017-10-11T11:53:27.629Z,872
2017-10-11T11:54:29.028Z,924
2017-10-11T11:55:30.424Z,1012
2017-10-11T11:56:31.817Z,960
2017-10-11T11:57:33.207Z,980
2017-10-11T11:58:34.601Z,968
2017-10-11T11:59:35.995Z,976
2017-10-11T12:00:37.395Z,964
2017-10-11T12:01:38.783Z,1136
2017-10-11T12:02:40.177Z,1072
2017-10-11T12:03:41.573Z,1020
2017-10-11T12:04:42.970Z,932
2017-10-11T12:05:44.358Z,988
2017-10-11T12:06:45.753Z,1088
2017-10-11T12:07:47.154Z,1264
2017-10-11T12:08:48.545Z,1236
2017-10-11T12:09:49.944Z,1336
2017-10-11T12:10:51.341Z,1444
2017-10-11T12:11:52.734Z,1372
2017-10-11T12:12:54.129Z,1452
2017-10-11T12:13:55.519Z,1704
2017-10-11T12:14:56.914Z,1592
2017-10-11T12:15:58.311Z,1548
2017-10-11T12:16:59.705Z,1624
2017-10-11T12:18:01.108Z,1720
2017-10-11T12:19:02.504Z,1836
2017-10-11T12:20:03.900Z,1860
2017-10-11T12:21:05.297Z,2016
2017-10-11T12:22:06.691Z,1892
2017-10-11T12:23:08.084Z,1796
2017-10-11T12:24:09.477Z,1768
2017-10-11T12:25:10.872Z,1960
2017-10-11T12:26:12.269Z,1856
2017-10-11T12:27:13.659Z,1740
2017-10-11T12:28:15.050Z,1856
2017-10-11T12:29:16.447Z,1612
2017-10-11T12:30:17.841Z,1596
2017-10-11T12:31:19.236Z,1544
2017-10-11T12:32:20.636Z,1404
2017-10-11T12:33:22.028Z,1456
2017-10-11T12:34:23.419Z,1428
2017-10-11T12:35:24.815Z,1300
2017-10-11T12:36:26.208Z,1284
2017-10-11T12:37:27.603Z,1316
2017-10-11T12:38:28.997Z,1168
2017-10-11T12:39:30.405Z,1176
2017-10-11T12:40:31.791Z,1172
2017-10-11T12:41:33.184Z,1148
2017-10-11T12:42:34.578Z,1168
2017-10-11T12:43:35.972Z,1148
2017-10-11T12:44:37.365Z,1256
2017-10-11T12:45:38.759Z,1136
2017-10-11T12:46:40.153Z,1024
2017-10-11T12:47:41.545Z,976
2017-10-11T12:48:42.937Z,1028
2017-10-11T12:49:44.333Z,1012
2017-10-11T12:50:45.728Z,1184
2017-10-11T12:51:47.120Z,1336
2017-10-11T12:52:48.515Z,1396
2017-10-11T12:53:49.912Z,1416
2017-10-11T12:54:51.309Z,1320
2017-10-11T12:55:52.699Z,1304
2017-10-11T12:56:54.090Z,1340
2017-10-11T12:57:55.483Z,1328
2017-10-11T12:58:56.880Z,1128
2017-10-11T12:59:58.277Z,1128
2017-10-11T13:00:59.673Z,1116
2017-10-11T13:02:01.065Z,1128
2017-10-11T13:03:02.455Z,1096
2017-10-11T13:04:03.851Z,1072
2017-10-11T13:05:05.245Z,1064
2017-10-11T13:06:06.640Z,1112
2017-10-11T13:07:08.034Z,1072
2017-10-11T13:08:09.430Z,1056
2017-10-11T13:09:10.822Z,1016
2017-10-11T13:10:12.214Z,984
2017-10-11T13:11:13.604Z,936
2017-10-11T13:12:14.998Z,972
2017-10-11T13:13:16.396Z,1048
2017-10-11T13:14:17.789Z,1152
2017-10-11T13:15:19.193Z,1224
2017-10-11T13:16:20.576Z,1544
2017-10-11T13:17:21.974Z,1820
2017-10-11T13:18:23.366Z,1836
2017-10-11T13:19:24.759Z,1936
2017-10-11T13:20:26.160Z,1900
2017-10-11T13:21:27.553Z,1964
2017-10-11T13:22:28.949Z,1952
2017-10-11T13:23:30.343Z,1964
2017-10-11T13:24:31.735Z,1940
2017-10-11T13:25:33.129Z,1984
2017-10-11T13:26:34.520Z,1984
2017-10-11T13:27:35.917Z,1992
2017-10-11T13:28:37.315Z,2108
2017-10-11T13:29:38.712Z,2412
2017-10-11T13:30:40.107Z,2576
2017-10-11T13:31:41.503Z,2556
2017-10-11T13:32:42.919Z,2432
2017-10-11T13:33:44.313Z,2424
2017-10-11T13:34:45.710Z,2564
2017-10-11T13:35:47.112Z,2544
2017-10-11T13:36:48.513Z,2668
2017-10-11T13:37:49.921Z,3148
2017-10-11T13:38:51.301Z,2840
2017-10-11T13:39:52.695Z,3096
2017-10-11T13:40:54.090Z,2812
2017-10-11T13:41:55.483Z,3032
2017-10-11T13:42:56.882Z,2748
2017-10-11T13:43:58.280Z,3152
2017-10-11T13:44:59.677Z,3664
2017-10-11T13:46:01.075Z,3244
2017-10-11T13:47:02.473Z,2760
2017-10-11T13:48:03.864Z,2692
2017-10-11T13:49:05.270Z,2768
2017-10-11T13:50:06.662Z,2592
2017-10-11T13:51:08.062Z,2816
2017-10-11T13:52:09.456Z,2640
2017-10-11T13:53:10.855Z,2696
2017-10-11T13:54:12.246Z,2476
2017-10-11T13:55:13.641Z,2020
2017-10-11T13:56:15.037Z,1808
2017-10-11T13:57:16.434Z,2028
2017-10-11T13:58:17.830Z,1984
2017-10-11T13:59:19.227Z,1984
2017-10-11T14:00:20.628Z,1760
2017-10-11T14:01:22.024Z,2364
2017-10-11T14:02:23.422Z,2500
2017-10-11T14:03:24.818Z,2132
2017-10-11T14:04:26.215Z,2136
2017-10-11T14:05:27.619Z,2300
2017-10-11T14:06:29.012Z,2784
2017-10-11T14:07:30.407Z,2548
2017-10-11T14:08:31.805Z,2664
2017-10-11T14:09:33.202Z,2656
2017-10-11T14:10:34.595Z,2552
2017-10-11T14:11:35.992Z,2776
2017-10-11T14:12:37.392Z,3000
2017-10-11T14:13:38.783Z,2716
2017-10-11T14:14:40.177Z,2484
2017-10-11T14:15:41.571Z,2620
2017-10-11T14:16:42.966Z,2276